Terminal Aerodrome Forecast
Issued by NWS

Home | Current Version | Previous Version | Text Only | Print | Product List | Glossary On
Versions: 1 2 3 4 5 6 7 8 9 10 11 12 13 14 15 16 17 18 19 20 21 22 23 24 25
000
FTUS43 KGRR 190300 AAA
TAFAZO
TAF AMD
KAZO 190303Z 1903/1924 27005KT P6SM SCT008 OVC015
      TEMPO 1903/1905 4SM -FZDZSN BR OVC008
     FM190800 32004KT P6SM OVC025
     FM191100 VRB03KT P6SM BKN040
     FM191600 34003KT P6SM SCT040=

USA.gov is the U.S. government's official web portal to all federal, state and local government web resources and services.